• Join FlightAware (Why Join?)
  • Login
  • US Flag 
10:11AM EDT


 

Airport Tracker/Info


-or-


 

Live Flight TrackerFlight Track Log ✈ VH-UPY ✈ 16-Jul-2013 ✈ YHBA / HVB - YBSU / MCY

Flight Track Log - Related Links

Times and Time Zones

All times are in EDT time to prevent confusion due to time zone crossing. See the VH-UPY flight status page for this flight to view local times or setup timezone preferences in your user account.

Time Position Orientation Groundspeed Altitude Reporting Facility
EDT Latitude Longitude Course Direction KTS MPH feet Rate Location/Type
02:16AM -25.3987 152.8933 172° South 200  Level Aus ATC (Calculated)
02:17AM -25.4737 152.9055 172° South 200 1,020 Level Aus ATC (Calculated)
02:19AM -25.5181 152.9127 172° South  Level FlightAware Approximate
02:20AM -25.5495 152.9178 172° South  Level FlightAware Approximate
02:21AM -25.5809 152.9229 172° South  Level FlightAware Approximate
02:21AM -25.5838 152.9221 172° South 142 163 5,300  Level Aus ATC (RADAR)
02:22AM -25.6160 152.9288 169° South 142 163 5,800 600 Climbing Aus ATC (RADAR)
02:22AM -25.6391 152.9322 173° South 143 165 6,200 600 Climbing Aus ATC (RADAR)
02:23AM -25.6621 152.9354 173° South 143 165 6,500 480 Climbing Aus ATC (RADAR)
02:24AM -25.6926 152.9363 178° South 146 168 6,900 360 Climbing Aus ATC (RADAR)
02:24AM -25.7173 152.9390 174° South 152 175 7,000  Climbing Aus ATC (RADAR)
02:26AM -25.7792 152.9440 176° South 168 193 7,000  Level Aus ATC (RADAR)
02:26AM -25.8070 152.9456 177° South 171 197 7,000  Level Aus ATC (RADAR)
02:27AM -25.8495 152.9553 169° South 170 196 7,000  Level Aus ATC (RADAR)
02:28AM -25.8755 152.9636 164° South 168 193 7,000  Level Aus ATC (RADAR)
02:29AM -25.9288 152.9804 164° South 174 200 7,000 -360 Level Aus ATC (RADAR)
02:31AM -26.0548 153.0001 172° South 183 211 5,900 -480 Descending Aus ATC (RADAR)
02:33AM -26.1280 153.0118 172° South 189 217 5,200 -540 Descending Aus ATC (RADAR)
02:34AM -26.1720 153.0180 173° South 191 220 4,800 -600 Descending Aus ATC (RADAR)
02:35AM -26.2241 153.0283 170° South 186 214 4,200 -600 Descending Aus ATC (RADAR)
02:36AM -26.2849 153.0382 172° South 174 200 3,500 -600 Descending Aus ATC (RADAR)
02:37AM -26.3321 153.0489 169° South 172 198 2,900 -600 Descending Aus ATC (RADAR)
02:38AM -26.3705 153.0554 171° South 166 191 2,500 -480 Descending Aus ATC (RADAR)
02:38AM -26.4009 153.0604 172° South 164 189 2,200 -420 Descending Aus ATC (RADAR)
02:39AM -26.4391 153.0658 173° South 165 190 1,900 -420 Descending Aus ATC (RADAR)
02:40AM -26.4694 153.0689 175° South 163 188 1,600 -360 Descending Aus ATC (RADAR)
02:41AM -26.5022 153.0756 170° South 159 183 1,400 -300 Descending Aus ATC (RADAR)
02:42AM -26.5377 153.0857 166° South 125 144 1,100 -240 Descending Aus ATC (RADAR)
02:42AM -26.5614 153.0909 169° South 115 132 1,000 -240 Descending Aus ATC (RADAR)
02:43AM -26.5758 153.0992 153° Southeast 101 116 800 -360 Descending Aus ATC (RADAR)